Time;durP1;ratioP1;P1;durP2;ratioP2;P2;SDS_P1;SDS_P2;PMS_P1;PMS_P2;Temp;Humidity;BMP_temperature;BMP_pressure;BME280_temperature;BME280_humidity;BME280_pressure;Samples;Min_cycle;Max_cycle;Signal;HPM_P1;HPM_P2
2023/03/27 00:00:31;;;;;;;16.33;7.50;;;;;;;6.94;68.29;101367.09;5052161;28;20029;-41
2023/03/27 00:02:57;;;;;;;14.32;7.32;;;;;;;7.05;69.94;101373.47;5052226;28;20017;-40
2023/03/27 00:05:23;;;;;;;18.15;7.60;;;;;;;7.00;69.92;101393.53;5052179;28;20032;-42
2023/03/27 00:07:54;;;;;;;16.50;7.88;;;;;;;6.97;69.26;101388.53;5052094;28;20029;-42
2023/03/27 00:10:21;;;;;;;19.00;8.75;;;;;;;6.83;70.81;101391.81;5052085;28;20067;-41
2023/03/27 00:12:46;;;;;;;16.88;7.57;;;;;;;6.77;68.29;101389.28;5051986;28;20025;-42
2023/03/27 00:15:16;;;;;;;19.17;8.05;;;;;;;6.62;69.09;101390.84;5051777;28;20040;-42
2023/03/27 00:17:43;;;;;;;16.63;7.78;;;;;;;6.67;70.28;101396.38;5051974;28;20037;-41
2023/03/27 00:20:09;;;;;;;17.25;7.70;;;;;;;6.60;68.29;101401.31;5051820;28;20064;-41
2023/03/27 00:22:34;;;;;;;17.70;7.90;;;;;;;6.62;71.16;101404.59;5051929;28;20128;-42
2023/03/27 00:25:00;;;;;;;14.45;7.80;;;;;;;6.66;71.10;101410.41;5050525;28;20137;-42
2023/03/27 00:27:25;;;;;;;18.65;8.55;;;;;;;6.82;71.38;101420.41;5051851;28;20037;-41
2023/03/27 00:29:52;;;;;;;14.77;7.75;;;;;;;6.86;71.16;101423.44;5051792;28;20033;-42
2023/03/27 00:32:18;;;;;;;16.33;7.85;;;;;;;6.67;68.40;101421.13;5050344;28;20028;-44
2023/03/27 00:34:43;;;;;;;15.52;7.78;;;;;;;6.66;71.90;101426.91;5051592;28;20021;-42
2023/03/27 00:37:09;;;;;;;15.90;8.00;;;;;;;6.62;72.87;101432.09;5051758;28;20104;-41
2023/03/27 00:39:34;;;;;;;19.27;7.85;;;;;;;6.57;72.36;101437.56;5051706;28;20388;-41
2023/03/27 00:42:00;;;;;;;15.98;7.65;;;;;;;6.53;71.94;101429.03;5051720;28;20052;-40
2023/03/27 00:44:33;;;;;;;19.08;7.97;;;;;;;6.58;71.51;101433.72;5051720;28;20029;-42
2023/03/27 00:47:01;;;;;;;17.30;8.13;;;;;;;6.62;70.90;101425.78;5045739;28;20387;-46
2023/03/27 00:49:30;;;;;;;17.80;8.00;;;;;;;6.51;70.17;101433.13;5051713;28;20071;-43
2023/03/27 00:51:57;;;;;;;14.55;7.88;;;;;;;6.46;72.43;101442.16;5051331;28;20028;-41
2023/03/27 00:54:28;;;;;;;16.60;7.65;;;;;;;6.51;70.50;101444.13;5050152;28;20422;-41
2023/03/27 00:56:56;;;;;;;15.98;7.80;;;;;;;6.62;73.35;101440.34;5051443;28;20057;-41
2023/03/27 00:59:27;;;;;;;18.65;8.45;;;;;;;6.54;71.69;101447.16;5051585;28;20035;-41
2023/03/27 01:01:52;;;;;;;16.05;7.85;;;;;;;6.43;70.96;101456.44;5051318;28;20029;-41
2023/03/27 01:04:20;;;;;;;17.20;7.68;;;;;;;6.45;74.15;101462.50;5050182;28;20114;-41
2023/03/27 01:06:47;;;;;;;18.17;8.20;;;;;;;6.38;71.46;101464.63;5051690;28;20027;-41
2023/03/27 01:09:12;;;;;;;15.38;8.15;;;;;;;6.32;75.57;101460.19;5051589;28;20025;-40
2023/03/27 01:12:15;;;;;;;15.73;8.10;;;;;;;6.34;75.79;101461.56;5051515;28;20029;-41
2023/03/27 01:14:56;;;;;;;16.08;7.80;;;;;;;6.46;73.26;101469.66;5051259;28;20029;-40
2023/03/27 01:17:55;;;;;;;15.70;7.40;;;;;;;6.49;73.75;101469.09;5051440;28;20048;-40
2023/03/27 01:20:43;;;;;;;13.48;6.97;;;;;;;6.52;74.50;101473.25;5051240;28;20033;-40
2023/03/27 01:23:28;;;;;;;15.23;7.85;;;;;;;6.60;75.38;101471.94;5051306;28;20047;-42
2023/03/27 01:26:02;;;;;;;17.15;7.78;;;;;;;6.60;74.42;101467.28;5050066;28;20116;-40
2023/03/27 01:28:39;;;;;;;13.13;7.60;;;;;;;6.58;73.60;101477.72;5054836;28;20040;-41
2023/03/27 01:31:29;;;;;;;15.43;7.97;;;;;;;6.64;75.03;101476.66;5055086;28;20373;-41
2023/03/27 01:34:09;;;;;;;16.75;7.63;;;;;;;6.61;75.73;101476.34;5054856;28;20049;-41
2023/03/27 01:37:08;;;;;;;15.65;7.90;;;;;;;6.61;74.44;101482.69;5053570;28;20589;-40
2023/03/27 01:39:44;;;;;;;14.10;7.05;;;;;;;6.60;76.23;101500.28;5054826;28;20029;-40
2023/03/27 01:42:17;;;;;;;12.48;7.38;;;;;;;6.59;75.03;101498.63;5051070;28;20039;-43
2023/03/27 01:44:52;;;;;;;14.07;7.57;;;;;;;6.64;76.88;101497.81;5053443;28;20025;-41
2023/03/27 01:47:30;;;;;;;15.40;7.38;;;;;;;6.77;76.13;101499.28;5054702;28;20091;-41
2023/03/27 01:50:17;;;;;;;15.57;7.80;;;;;;;6.71;74.71;101503.91;5053477;28;20109;-42
2023/03/27 01:52:50;;;;;;;14.23;8.48;;;;;;;6.74;75.25;101505.31;5053221;28;20033;-41
2023/03/27 01:55:20;;;;;;;13.70;7.78;;;;;;;6.88;75.47;101512.03;5054577;28;20052;-43
2023/03/27 01:57:52;;;;;;;14.18;8.10;;;;;;;6.96;75.58;101513.44;5054415;28;20502;-41
2023/03/27 02:00:22;;;;;;;16.23;8.30;;;;;;;6.95;73.84;101512.63;5053288;28;20060;-40
2023/03/27 02:03:10;;;;;;;17.25;8.13;;;;;;;7.03;75.46;101511.28;5053023;28;20396;-43
2023/03/27 02:05:42;;;;;;;14.80;7.80;;;;;;;6.91;73.26;101519.72;5054291;28;20067;-40
2023/03/27 02:08:23;;;;;;;14.45;8.00;;;;;;;6.96;74.89;101518.94;5054522;28;20033;-42
2023/03/27 02:10:53;;;;;;;13.85;7.88;;;;;;;7.09;76.25;101517.63;5054649;28;20033;-40
2023/03/27 02:13:26;;;;;;;17.63;7.80;;;;;;;7.10;74.51;101530.28;5054169;28;20025;-40
2023/03/27 02:15:53;;;;;;;14.27;8.27;;;;;;;6.93;75.91;101528.53;5054229;28;20021;-41
2023/03/27 02:18:27;;;;;;;14.35;7.70;;;;;;;6.97;76.88;101528.84;5053558;28;20040;-40
2023/03/27 02:20:52;;;;;;;14.18;7.90;;;;;;;6.85;75.77;101538.09;5053985;28;20136;-40
2023/03/27 02:23:18;;;;;;;14.95;7.68;;;;;;;6.67;74.29;101544.88;5054098;28;20075;-40
2023/03/27 02:25:44;;;;;;;15.25;7.97;;;;;;;6.47;74.74;101545.50;5053984;28;20028;-43
2023/03/27 02:28:44;;;;;;;15.05;7.85;;;;;;;6.38;76.96;101552.56;5053967;28;20483;-40
2023/03/27 02:31:24;;;;;;;16.63;8.35;;;;;;;6.28;78.34;101556.06;5053741;28;20499;-41
2023/03/27 02:34:06;;;;;;;14.18;7.72;;;;;;;6.29;76.68;101556.88;5053861;28;20029;-40
2023/03/27 02:36:46;;;;;;;15.90;7.40;;;;;;;6.13;76.46;101564.97;5053878;28;20025;-41
2023/03/27 02:39:37;;;;;;;17.20;8.40;;;;;;;5.93;76.79;101566.38;5053509;28;20030;-41
2023/03/27 02:42:14;;;;;;;16.13;8.50;;;;;;;5.70;77.51;101561.16;5053686;28;20056;-40
2023/03/27 02:44:50;;;;;;;20.10;8.25;;;;;;;5.54;78.29;101569.19;5053623;28;20033;-40
2023/03/27 02:47:32;;;;;;;16.95;8.75;;;;;;;5.41;78.23;101561.34;5053658;28;20029;-40
2023/03/27 02:50:04;;;;;;;16.27;8.35;;;;;;;5.34;80.96;101560.69;5048801;28;20029;-41
2023/03/27 02:52:34;;;;;;;17.15;8.50;;;;;;;5.38;79.53;101581.03;5053410;28;20031;-40
2023/03/27 02:55:05;;;;;;;17.38;8.45;;;;;;;5.37;79.84;101568.41;5053414;28;20039;-41
2023/03/27 02:57:38;;;;;;;18.08;8.50;;;;;;;5.48;82.21;101578.44;5053534;28;20041;-40
2023/03/27 03:00:12;;;;;;;15.35;8.10;;;;;;;5.49;79.90;101590.22;5053491;28;20033;-43
2023/03/27 03:02:39;;;;;;;16.42;8.43;;;;;;;5.35;79.72;101576.91;5053314;28;20477;-41
2023/03/27 03:05:19;;;;;;;15.70;8.00;;;;;;;5.45;82.97;101584.44;5053137;28;20056;-41
2023/03/27 03:07:46;;;;;;;14.23;7.75;;;;;;;5.62;81.84;101590.69;5053247;28;20049;-40
2023/03/27 03:10:12;;;;;;;16.88;8.07;;;;;;;5.75;79.05;101596.91;5053058;28;20029;-40
2023/03/27 03:12:37;;;;;;;13.95;7.63;;;;;;;6.00;81.30;101593.69;5052907;28;20472;-40
2023/03/27 03:15:04;;;;;;;13.68;7.78;;;;;;;6.04;79.34;101602.22;5052946;28;20059;-40
2023/03/27 03:17:29;;;;;;;17.00;8.00;;;;;;;6.06;79.21;101611.06;5052822;28;20025;-40
2023/03/27 03:19:55;;;;;;;16.83;8.20;;;;;;;6.05;76.83;101615.69;5052732;28;20491;-41
2023/03/27 03:22:20;;;;;;;14.73;7.93;;;;;;;6.07;76.85;101626.44;5052637;28;20484;-40
2023/03/27 03:24:46;;;;;;;17.00;8.13;;;;;;;6.03;76.50;101622.53;5052836;28;20036;-42
2023/03/27 03:27:13;;;;;;;16.90;8.35;;;;;;;6.07;76.02;101624.50;5052863;28;20029;-40
2023/03/27 03:29:38;;;;;;;14.88;7.90;;;;;;;6.18;78.09;101622.75;5053020;28;20495;-41
2023/03/27 03:32:07;;;;;;;16.13;7.85;;;;;;;6.15;76.59;101627.88;5052594;28;20055;-41
2023/03/27 03:34:32;;;;;;;14.95;7.88;;;;;;;6.16;79.19;101630.41;5052229;28;20037;-41
2023/03/27 03:36:59;;;;;;;17.58;7.50;;;;;;;6.09;77.11;101635.28;5052634;28;20029;-42
2023/03/27 03:39:24;;;;;;;14.90;7.50;;;;;;;6.09;79.14;101636.09;5052525;28;20024;-40
2023/03/27 03:41:50;;;;;;;15.77;7.72;;;;;;;6.07;77.03;101634.69;5052589;28;20029;-41
2023/03/27 03:44:15;;;;;;;17.77;8.50;;;;;;;6.13;76.34;101638.34;5052603;28;20025;-41
2023/03/27 03:46:41;;;;;;;17.20;8.15;;;;;;;5.92;75.96;101654.53;5052436;28;20025;-42
2023/03/27 03:49:06;;;;;;;13.73;8.00;;;;;;;5.82;79.36;101649.72;5048165;28;20042;-41
2023/03/27 03:51:33;;;;;;;17.13;8.68;;;;;;;5.66;76.91;101665.16;5049773;28;20032;-41
2023/03/27 03:54:00;;;;;;;12.43;7.82;;;;;;;5.71;79.98;101650.69;5052162;28;20041;-40
2023/03/27 03:56:26;;;;;;;14.50;8.20;;;;;;;5.88;80.33;101659.69;5052269;28;20028;-40
2023/03/27 03:58:52;;;;;;;16.15;8.40;;;;;;;5.96;77.00;101660.34;5052127;28;20498;-40
2023/03/27 04:01:19;;;;;;;14.77;8.10;;;;;;;5.81;77.80;101659.03;5052047;28;20025;-41
2023/03/27 04:03:45;;;;;;;13.35;7.88;;;;;;;5.85;80.73;101665.69;5052350;28;20029;-47
2023/03/27 04:06:11;;;;;;;14.80;8.45;;;;;;;5.82;77.73;101671.69;5052028;28;20029;-41
2023/03/27 04:08:36;;;;;;;15.77;8.23;;;;;;;5.73;76.49;101671.28;5052023;28;20064;-40
2023/03/27 04:11:02;;;;;;;17.02;8.27;;;;;;;5.60;76.49;101679.88;5051976;28;20044;-39
2023/03/27 04:13:27;;;;;;;17.35;8.60;;;;;;;5.43;78.10;101680.75;5050569;28;20021;-40
2023/03/27 04:15:54;;;;;;;15.02;8.52;;;;;;;5.39;77.48;101685.06;5051676;28;20029;-40
2023/03/27 04:18:19;;;;;;;15.75;8.30;;;;;;;5.49;81.07;101686.28;5051621;28;20033;-41
2023/03/27 04:20:48;;;;;;;15.80;8.10;;;;;;;5.56;77.99;101687.78;5051330;28;20060;-41
2023/03/27 04:23:19;;;;;;;15.18;8.05;;;;;;;5.75;79.32;101704.84;5052143;28;20468;-42
2023/03/27 04:25:45;;;;;;;13.18;7.63;;;;;;;5.99;80.99;101703.78;5051362;28;20025;-41
2023/03/27 04:28:15;;;;;;;14.40;8.20;;;;;;;5.77;76.40;101699.91;5050485;28;20025;-45
2023/03/27 04:30:42;;;;;;;12.63;7.43;;;;;;;5.67;77.22;101702.50;5051780;28;20040;-41
2023/03/27 04:33:17;;;;;;;12.38;6.95;;;;;;;5.57;77.27;101711.41;5051639;28;20021;-41
2023/03/27 04:35:42;;;;;;;12.43;7.40;;;;;;;5.78;81.62;101714.47;5051800;28;20036;-40
2023/03/27 04:38:07;;;;;;;16.63;7.70;;;;;;;5.78;79.80;101723.53;5051624;28;20029;-41
2023/03/27 04:40:32;;;;;;;16.20;7.45;;;;;;;5.69;77.12;101726.97;5051667;28;20029;-41
2023/03/27 04:42:58;;;;;;;12.05;7.40;;;;;;;5.67;79.48;101735.44;5051641;28;20384;-40
2023/03/27 04:45:24;;;;;;;15.63;8.15;;;;;;;5.68;80.59;101725.31;5051721;28;20044;-41
2023/03/27 04:47:49;;;;;;;14.27;7.63;;;;;;;5.82;81.25;101737.56;5051752;28;20083;-41
2023/03/27 04:50:15;;;;;;;17.33;7.80;;;;;;;5.83;78.16;101736.50;5047103;28;20029;-41
2023/03/27 04:52:42;;;;;;;15.68;7.80;;;;;;;5.85;78.01;101736.28;5049555;28;20028;-41
2023/03/27 04:55:07;;;;;;;16.55;8.27;;;;;;;5.96;79.68;101739.97;5049506;28;20115;-41
2023/03/27 04:57:33;;;;;;;14.85;8.10;;;;;;;5.93;75.80;101744.06;5050978;28;20480;-40
2023/03/27 04:59:59;;;;;;;15.73;8.38;;;;;;;5.85;77.20;101742.56;5050975;28;20029;-39
2023/03/27 05:02:25;;;;;;;14.82;8.00;;;;;;;5.77;78.68;101754.00;5048230;28;20049;-41
2023/03/27 05:04:57;;;;;;;15.50;7.95;;;;;;;5.76;79.74;101755.88;5045966;28;20021;-41
2023/03/27 05:07:25;;;;;;;14.18;7.78;;;;;;;5.84;77.58;101760.13;5052935;28;20041;-42
2023/03/27 05:09:50;;;;;;;13.40;7.80;;;;;;;5.87;77.55;101762.38;5054124;28;20021;-41
2023/03/27 05:12:15;;;;;;;16.75;7.88;;;;;;;5.70;76.15;101764.31;5053820;28;20468;-42
2023/03/27 05:14:41;;;;;;;14.98;7.60;;;;;;;5.58;78.92;101769.88;5053962;28;20468;-42
2023/03/27 05:17:06;;;;;;;16.90;8.27;;;;;;;5.57;79.01;101777.28;5053876;28;20036;-41
2023/03/27 05:19:31;;;;;;;13.93;7.88;;;;;;;5.61;77.35;101778.47;5053919;28;20044;-41
2023/03/27 05:21:57;;;;;;;14.02;7.45;;;;;;;5.66;77.24;101780.47;5053715;28;20071;-42
2023/03/27 05:24:22;;;;;;;14.32;7.47;;;;;;;5.66;75.95;101783.22;5053634;28;20024;-43
2023/03/27 05:26:48;;;;;;;14.35;7.30;;;;;;;5.57;76.78;101790.19;5053498;28;20048;-43
2023/03/27 05:29:14;;;;;;;13.80;7.40;;;;;;;5.58;79.69;101789.94;5053495;28;20028;-42
2023/03/27 05:31:39;;;;;;;16.23;7.53;;;;;;;5.62;79.08;101798.50;5051833;28;20037;-41
2023/03/27 05:34:04;;;;;;;14.93;8.18;;;;;;;5.58;76.92;101800.91;5053471;28;20169;-43
2023/03/27 05:36:30;;;;;;;13.77;7.72;;;;;;;5.54;78.15;101797.00;5053757;28;20059;-42
2023/03/27 05:38:56;;;;;;;20.77;7.70;;;;;;;5.68;79.37;101803.00;5053601;28;20503;-41
2023/03/27 05:41:23;;;;;;;17.25;7.82;;;;;;;5.71;78.32;101807.19;5054574;28;20047;-41
2023/03/27 05:43:49;;;;;;;17.80;7.65;;;;;;;5.69;78.67;101807.41;5053695;28;20024;-43
2023/03/27 05:46:15;;;;;;;17.70;8.13;;;;;;;5.70;81.14;101811.00;5051268;28;20078;-40
2023/03/27 05:48:40;;;;;;;18.08;8.02;;;;;;;5.68;78.59;101813.97;5054305;28;20029;-42
2023/03/27 05:51:06;;;;;;;16.92;7.70;;;;;;;5.88;79.87;101816.22;5054478;28;20036;-42
2023/03/27 05:53:31;;;;;;;16.77;7.38;;;;;;;6.14;78.37;101824.06;5042358;28;20396;-41
2023/03/27 05:55:56;;;;;;;16.52;7.40;;;;;;;6.23;77.53;101823.38;5033204;28;20036;-40
2023/03/27 05:58:22;;;;;;;15.15;7.35;;;;;;;6.34;76.44;101821.59;5034406;28;20441;-42
2023/03/27 06:00:49;;;;;;;16.38;7.40;;;;;;;6.31;74.93;101827.63;5034340;28;20033;-43
2023/03/27 06:03:15;;;;;;;16.35;7.57;;;;;;;6.17;76.42;101840.88;5034523;28;20030;-41
2023/03/27 06:05:40;;;;;;;15.45;7.18;;;;;;;6.17;76.15;101835.38;5034517;28;20388;-41
2023/03/27 06:08:08;;;;;;;18.40;8.30;;;;;;;6.27;75.20;101847.59;5034530;28;20033;-41
2023/03/27 06:10:34;;;;;;;18.25;7.30;;;;;;;6.20;74.81;101832.09;5034347;28;20026;-41
2023/03/27 06:13:01;;;;;;;12.65;7.07;;;;;;;6.30;76.98;101844.34;5033813;28;20033;-41
2023/03/27 06:15:27;;;;;;;16.20;7.40;;;;;;;6.45;76.53;101847.31;5033574;28;20049;-41
2023/03/27 06:17:53;;;;;;;15.77;7.10;;;;;;;6.64;76.42;101842.34;5046409;28;20109;-42
2023/03/27 06:20:20;;;;;;;14.70;6.80;;;;;;;6.65;74.22;101838.50;5050233;28;20033;-41
2023/03/27 06:22:54;;;;;;;15.15;6.70;;;;;;;6.54;74.47;101847.69;5050332;28;20048;-42
2023/03/27 06:25:20;;;;;;;14.68;6.80;;;;;;;6.60;74.13;101843.09;5050239;28;20021;-42
2023/03/27 06:27:48;;;;;;;15.02;6.50;;;;;;;6.51;71.79;101848.22;5050359;28;20071;-41
2023/03/27 06:30:16;;;;;;;14.75;6.60;;;;;;;6.53;73.59;101857.03;5050664;28;20124;-42
2023/03/27 06:32:46;;;;;;;14.68;6.40;;;;;;;6.55;72.83;101866.72;5051767;28;20025;-41
2023/03/27 06:35:15;;;;;;;14.05;6.80;;;;;;;6.54;71.42;101869.69;5050040;28;20025;-41
2023/03/27 06:37:41;;;;;;;12.88;6.30;;;;;;;6.49;72.42;101869.63;5052296;28;20403;-42
2023/03/27 06:40:09;;;;;;;13.32;6.70;;;;;;;6.49;73.18;101873.19;5052253;28;20063;-41
2023/03/27 06:42:35;;;;;;;15.45;6.68;;;;;;;6.51;71.59;101871.03;5051867;28;20029;-42
2023/03/27 06:45:02;;;;;;;12.45;6.28;;;;;;;6.59;74.06;101863.44;5052632;28;20056;-41
2023/03/27 06:47:28;;;;;;;10.88;6.50;;;;;;;6.75;72.73;101884.56;5052137;28;20036;-41
2023/03/27 06:49:54;;;;;;;14.52;6.80;;;;;;;6.69;71.60;101889.16;5052295;28;20090;-41
2023/03/27 06:52:20;;;;;;;11.00;6.28;;;;;;;6.59;71.98;101885.44;5051803;28;20041;-42
2023/03/27 06:54:45;;;;;;;13.45;6.30;;;;;;;6.59;72.36;101891.78;5052036;28;20025;-43
2023/03/27 06:57:11;;;;;;;12.13;6.50;;;;;;;6.63;71.18;101894.84;5051963;28;20025;-41
2023/03/27 06:59:37;;;;;;;13.55;6.20;;;;;;;6.48;71.38;101901.78;5052228;28;20029;-41
2023/03/27 07:02:02;;;;;;;10.25;6.32;;;;;;;6.37;72.65;101900.81;5051824;28;20029;-41
2023/03/27 07:04:28;;;;;;;13.50;6.50;;;;;;;6.44;74.88;101908.03;5051699;28;20036;-41
2023/03/27 07:06:53;;;;;;;12.68;6.75;;;;;;;6.35;72.08;101918.63;5051741;28;20032;-41
2023/03/27 07:09:18;;;;;;;11.70;6.72;;;;;;;6.35;74.61;101911.22;5051499;28;20033;-41
2023/03/27 07:11:44;;;;;;;12.73;6.70;;;;;;;6.26;72.71;101909.16;5050916;28;20544;-43
2023/03/27 07:14:09;;;;;;;11.73;6.70;;;;;;;6.28;74.46;101906.97;5051713;28;20041;-41
2023/03/27 07:16:34;;;;;;;15.52;7.18;;;;;;;6.26;72.88;101920.97;5051216;28;20028;-41
2023/03/27 07:19:00;;;;;;;12.57;7.20;;;;;;;6.31;72.62;101923.81;5051615;28;20032;-42
2023/03/27 07:21:25;;;;;;;13.02;7.00;;;;;;;6.27;72.63;101925.38;5051225;28;20048;-42
2023/03/27 07:23:51;;;;;;;15.48;7.00;;;;;;;6.20;72.56;101922.78;5051075;28;20437;-41
2023/03/27 07:26:17;;;;;;;11.63;6.40;;;;;;;6.20;71.85;101930.22;5051266;28;20028;-41
2023/03/27 07:28:43;;;;;;;15.00;6.68;;;;;;;6.31;72.50;101928.44;5051122;28;20024;-42
2023/03/27 07:31:12;;;;;;;14.10;7.05;;;;;;;6.42;73.93;101937.72;5049415;28;20377;-40
2023/03/27 07:33:39;;;;;;;13.40;7.00;;;;;;;6.38;70.93;101937.34;5050803;28;20029;-41
2023/03/27 07:36:06;;;;;;;14.10;6.70;;;;;;;6.51;72.96;101942.50;5049279;28;20031;-41
2023/03/27 07:38:32;;;;;;;12.70;6.50;;;;;;;6.66;72.09;101936.41;5041941;28;20110;-40
2023/03/27 07:41:01;;;;;;;11.55;6.53;;;;;;;6.62;68.79;101938.00;5040306;28;20048;-42
2023/03/27 07:43:26;;;;;;;13.55;6.70;;;;;;;6.64;69.54;101946.00;5042124;28;20029;-41
2023/03/27 07:45:52;;;;;;;13.40;6.90;;;;;;;6.66;69.63;101941.09;5046363;28;20170;-41
2023/03/27 07:48:17;;;;;;;15.82;6.97;;;;;;;6.67;70.19;101946.34;5050903;28;20543;-41
2023/03/27 07:50:43;;;;;;;11.90;6.70;;;;;;;6.66;68.85;101955.66;5051028;28;20040;-42
2023/03/27 07:53:09;;;;;;;12.75;6.93;;;;;;;6.66;68.47;101952.09;5043910;28;20166;-42
2023/03/27 07:55:36;;;;;;;15.38;7.15;;;;;;;6.60;68.46;101948.44;5031011;28;20472;-41
2023/03/27 07:58:02;;;;;;;15.63;7.13;;;;;;;6.55;68.17;101954.69;5031155;28;20156;-41
2023/03/27 08:00:28;;;;;;;13.32;7.00;;;;;;;6.60;68.07;101951.19;5033604;28;21298;-41
2023/03/27 08:03:05;;;;;;;14.45;7.15;;;;;;;6.70;68.66;101961.50;5046249;28;20031;-42
2023/03/27 08:05:30;;;;;;;14.10;7.45;;;;;;;6.86;69.21;101963.38;5041364;28;20032;-40
2023/03/27 08:07:55;;;;;;;12.48;6.97;;;;;;;6.93;67.29;101965.13;5048098;28;20029;-40
2023/03/27 08:10:21;;;;;;;14.02;7.15;;;;;;;6.88;67.23;101974.13;5050551;28;20117;-41
2023/03/27 08:12:46;;;;;;;12.20;7.03;;;;;;;6.88;68.59;101976.88;5039620;28;20040;-40
2023/03/27 08:15:12;;;;;;;16.80;6.82;;;;;;;6.99;68.99;101966.84;5041130;28;20017;-41
2023/03/27 08:17:37;;;;;;;15.55;6.88;;;;;;;7.10;68.27;101967.81;5041061;28;20037;-41
2023/03/27 08:20:08;;;;;;;15.02;6.88;;;;;;;7.08;67.96;101964.50;5038447;28;20021;-41
2023/03/27 08:22:34;;;;;;;13.10;6.80;;;;;;;7.14;68.47;101977.22;5044103;28;20052;-41
2023/03/27 08:24:59;;;;;;;21.33;7.70;;;;;;;7.20;66.27;101975.38;5050547;28;20389;-41
2023/03/27 08:27:24;;;;;;;13.68;6.80;;;;;;;7.25;66.56;101983.69;5047890;28;20100;-41
2023/03/27 08:29:50;;;;;;;13.38;7.00;;;;;;;7.29;66.63;101993.94;5039313;28;20037;-41
2023/03/27 08:32:15;;;;;;;15.15;6.82;;;;;;;7.38;66.44;101982.47;5039982;28;20025;-42
2023/03/27 08:34:41;;;;;;;13.70;6.68;;;;;;;7.36;66.47;101987.41;5037227;28;20037;-40
2023/03/27 08:37:07;;;;;;;13.05;7.00;;;;;;;7.36;65.99;101984.66;5046943;28;20033;-41
2023/03/27 08:39:33;;;;;;;13.98;7.22;;;;;;;7.41;66.36;101987.47;5045000;28;20033;-41
2023/03/27 08:42:01;;;;;;;12.65;6.70;;;;;;;7.36;66.01;101985.47;5036535;28;20028;-40
2023/03/27 08:44:29;;;;;;;11.98;6.70;;;;;;;7.36;65.56;101995.69;5044595;28;20484;-41
2023/03/27 08:47:06;;;;;;;13.13;6.60;;;;;;;7.42;64.98;101997.41;5054117;28;20037;-42
2023/03/27 08:49:40;;;;;;;13.00;6.50;;;;;;;7.46;65.60;101995.81;5063539;28;20453;-41
2023/03/27 08:52:33;;;;;;;13.63;6.45;;;;;;;7.51;66.48;101984.84;5060053;28;20381;-40
2023/03/27 08:55:13;;;;;;;12.00;6.53;;;;;;;7.69;64.57;102004.88;5067208;28;20032;-41
2023/03/27 08:57:38;;;;;;;11.40;6.10;;;;;;;7.73;62.93;102008.78;5060133;28;20036;-42
2023/03/27 09:00:13;;;;;;;10.52;6.55;;;;;;;7.81;64.23;102005.56;5075608;28;20028;-41
2023/03/27 09:02:47;;;;;;;14.63;6.97;;;;;;;7.85;63.31;102017.72;5077186;28;20028;-41
2023/03/27 09:05:18;;;;;;;11.82;6.40;;;;;;;7.80;62.26;102009.41;5063618;28;20033;-41
2023/03/27 09:07:59;;;;;;;12.95;6.50;;;;;;;7.90;63.58;102023.28;5072303;28;20521;-41
2023/03/27 09:10:34;;;;;;;12.60;6.32;;;;;;;8.04;62.69;102022.88;5045428;28;20549;-42
2023/03/27 09:13:10;;;;;;;15.77;6.22;;;;;;;8.16;62.34;102023.53;5068109;28;20033;-41
2023/03/27 09:15:58;;;;;;;11.88;6.60;;;;;;;8.33;62.77;102037.22;5057176;28;20033;-40
2023/03/27 09:18:32;;;;;;;13.50;6.20;;;;;;;8.42;59.70;102032.91;5056043;28;20029;-41
2023/03/27 09:21:10;;;;;;;9.93;6.10;;;;;;;8.46;58.23;102026.84;5048099;28;20053;-41
2023/03/27 09:23:42;;;;;;;12.93;6.03;;;;;;;8.45;57.22;102036.22;5060197;28;20752;-41
2023/03/27 09:26:12;;;;;;;13.02;6.85;;;;;;;8.41;58.06;102060.72;5075170;28;20044;-42
2023/03/27 09:28:44;;;;;;;14.32;6.70;;;;;;;8.38;61.90;102073.09;5076877;28;20040;-41
2023/03/27 09:31:33;;;;;;;13.73;6.78;;;;;;;8.24;63.25;102058.91;5037128;28;20034;-41
2023/03/27 09:34:05;;;;;;;13.10;6.53;;;;;;;8.03;64.82;102057.88;5045514;28;20449;-41
2023/03/27 09:36:31;;;;;;;9.27;6.10;;;;;;;7.89;65.32;102054.69;5050931;28;20213;-41
2023/03/27 09:39:04;;;;;;;12.90;6.10;;;;;;;7.61;66.94;102055.72;5056189;28;20517;-40
2023/03/27 09:41:52;;;;;;;12.50;6.40;;;;;;;7.51;68.69;102061.13;5063480;28;20028;-43
2023/03/27 09:44:28;;;;;;;9.82;6.25;;;;;;;7.45;68.45;102066.53;5076460;28;20031;-42
2023/03/27 09:47:16;;;;;;;12.15;6.35;;;;;;;7.41;68.49;102057.16;5052006;28;20044;-42
2023/03/27 09:49:53;;;;;;;8.05;5.80;;;;;;;7.36;69.10;102070.81;5053354;28;20036;-41
2023/03/27 09:52:39;;;;;;;8.98;6.18;;;;;;;7.37;69.65;102071.69;5053268;28;20025;-41
2023/03/27 09:55:29;;;;;;;7.43;5.90;;;;;;;7.44;70.08;102070.38;5053444;28;20048;-40
2023/03/27 09:58:12;;;;;;;12.27;6.07;;;;;;;7.41;69.02;102070.91;5051932;28;20364;-42
2023/03/27 10:00:38;;;;;;;9.05;6.22;;;;;;;7.41;68.88;102081.94;5053197;28;20061;-41
2023/03/27 10:03:10;;;;;;;9.85;6.20;;;;;;;7.49;68.15;102083.38;5049190;28;20072;-41
2023/03/27 10:05:36;;;;;;;11.07;6.38;;;;;;;7.58;68.17;102073.59;5052738;28;20032;-40
2023/03/27 10:08:27;;;;;;;11.27;6.20;;;;;;;7.71;68.02;102074.31;5053000;28;20198;-40
2023/03/27 10:10:57;;;;;;;11.82;6.22;;;;;;;7.79;65.94;102071.91;5054593;28;20060;-41
2023/03/27 10:13:26;;;;;;;11.23;6.30;;;;;;;7.91;67.06;102077.31;5055689;28;20029;-40
2023/03/27 10:15:59;;;;;;;10.60;6.25;;;;;;;7.96;66.07;102080.13;5065219;28;20079;-42
2023/03/27 10:18:28;;;;;;;9.82;6.50;;;;;;;8.05;64.80;102080.50;5064189;28;20521;-40
2023/03/27 10:20:56;;;;;;;11.20;6.38;;;;;;;8.12;65.11;102083.06;5056481;28;20056;-40
2023/03/27 10:23:26;;;;;;;12.82;6.60;;;;;;;8.25;64.61;102079.88;5069011;28;20037;-40
2023/03/27 10:25:57;;;;;;;12.73;6.03;;;;;;;8.26;64.04;102084.31;5059706;28;20064;-41
2023/03/27 10:28:35;;;;;;;12.35;6.30;;;;;;;8.33;64.32;102072.22;5057204;28;20456;-40
2023/03/27 10:31:08;;;;;;;14.93;6.70;;;;;;;8.39;61.97;102074.78;5064458;28;20107;-40
2023/03/27 10:33:40;;;;;;;10.80;5.97;;;;;;;8.51;60.92;102084.84;5052724;28;20028;-41
2023/03/27 10:36:08;;;;;;;10.63;6.53;;;;;;;8.55;59.01;102083.22;5046645;28;20032;-41
2023/03/27 10:38:36;;;;;;;12.50;6.10;;;;;;;8.67;59.17;102092.16;5056011;28;20132;-40
2023/03/27 10:41:16;;;;;;;12.13;6.20;;;;;;;8.85;58.00;102090.94;5055186;28;20028;-40
2023/03/27 10:43:44;;;;;;;12.18;6.20;;;;;;;8.92;56.96;102101.75;5040513;28;20034;-41
2023/03/27 11:24:02;;;;;;;14.55;9.57;;;;;;;8.11;69.86;102151.13;5088130;27;20392;-47
2023/03/27 11:26:36;;;;;;;15.80;10.25;;;;;;;8.13;70.01;102139.81;5088468;28;20032;-48
2023/03/27 11:29:12;;;;;;;14.13;9.10;;;;;;;8.19;70.55;102144.31;5087984;28;20114;-48
2023/03/27 11:31:47;;;;;;;15.55;9.70;;;;;;;8.17;67.89;102154.78;5082698;28;20028;-49
2023/03/27 11:34:31;;;;;;;14.73;9.20;;;;;;;8.17;67.56;102151.19;5070011;28;20426;-48
2023/03/27 11:37:11;;;;;;;;;;;;;;;8.28;68.83;102152.97;5082991;28;20024;-49
2023/03/27 11:39:40;;;;;;;14.25;9.60;;;;;;;8.26;68.95;102152.41;5108457;28;19912;-47
2023/03/27 11:42:25;;;;;;;13.20;9.10;;;;;;;8.19;67.87;102140.72;5094621;28;20489;-52
2023/03/27 11:44:51;;;;;;;14.23;9.27;;;;;;;8.26;66.02;102144.94;5087530;28;20111;-48
2023/03/27 11:47:18;;;;;;;13.52;9.13;;;;;;;8.35;67.18;102147.25;5085271;28;20086;-50
2023/03/27 11:50:21;;;;;;;24.13;10.75;;;;;;;8.45;66.46;102149.28;5067487;28;20048;-48
2023/03/27 11:53:20;;;;;;;39.65;13.60;;;;;;;8.62;66.96;102146.44;5085707;28;20500;-49
2023/03/27 11:56:04;;;;;;;15.63;10.05;;;;;;;8.85;67.22;102153.56;5087386;28;20033;-50
2023/03/27 11:58:37;;;;;;;16.95;10.18;;;;;;;8.98;66.53;102138.47;5087205;28;20040;-48
2023/03/27 12:01:20;;;;;;;17.13;10.35;;;;;;;9.01;63.59;102158.13;5087502;28;20035;-51
2023/03/27 12:04:01;;;;;;;16.65;10.95;;;;;;;9.08;61.33;102165.34;5087186;28;20035;-50
2023/03/27 12:06:33;;;;;;;15.82;10.20;;;;;;;9.02;58.75;102167.22;5086554;28;20032;-50
2023/03/27 12:09:17;;;;;;;14.45;9.45;;;;;;;8.87;59.50;102152.22;5087410;28;20430;-50
2023/03/27 12:11:48;;;;;;;42.25;12.95;;;;;;;8.92;60.82;102164.38;5087376;28;20811;-49
2023/03/27 12:14:44;;;;;;;16.15;9.60;;;;;;;8.82;60.50;102154.09;5078224;28;20036;-52
2023/03/27 12:17:37;;;;;;;15.95;9.35;;;;;;;8.85;61.48;102159.06;5066669;28;20040;-47